Flight Track Log - Related Links

Times and Time Zones

All times are in EDT time to prevent confusion due to time zone crossing. See the BJS262 flight status page for this flight to view local times or setup timezone preferences in your user account.

Time Position Orientation Groundspeed Altitude Reporting Facility
EDT Latitude Longitude Course Direction KTS MPH feet Rate Location/Type
Sun 01:32:16 PM 40.1058 -74.1169 37° Northeast 168 193 3,000  Level New York Center
Sun 01:33:16 PM 40.0767 -74.0397 116° Southeast 183 211 6,000 2,319 Climbing New York Center
Sun 01:34:15 PM 40.0481 -73.9489 112° Southeast 239 275 7,600 950 Climbing New York Center
Sun 01:35:16 PM 40.0108 -73.8497 116° Southeast 272 313 7,900 149 Climbing New York Center
Sun 01:36:16 PM 39.9797 -73.7669 116° Southeast 277 319 7,900  Level New York Center
Sun 01:37:00 PM 39.9909 -73.4258 37° Northeast  Level FlightAware Approximate
Sun 01:37:16 PM 39.9947 -73.6728 78° East 255 293 7,900  Level New York Center
Sun 01:38:17 PM 40.0569 -73.5914 45° Northeast 250 288 8,000 1,866 Climbing New York Center
Sun 01:39:15 PM 40.1128 -73.5258 42° Northeast 277 319 11,600 2,521 Climbing New York Center
Sun 01:40:16 PM 40.1881 -73.4308 44° Northeast 322 371 13,000 2,394 Climbing New York Center
Sun 01:42:43 PM 40.3828 -73.1947 43° Northeast 385 443 19,900 2,667 Climbing Boston Center
Sun 01:43:43 PM 40.4997 -73.1550 14° North 407 468 22,200 2,100 Climbing Boston Center
Sun 01:44:43 PM 40.6289 -73.1347 North 441 507 24,100 2,300 Climbing Boston Center
Sun 01:45:43 PM 40.7414 -73.1522 353° North 454 522 26,800 2,550 Climbing Boston Center
Sun 01:46:43 PM 40.8706 -73.1592 358° North 454 522 29,200 2,200 Climbing Boston Center
Sun 01:47:43 PM 40.9975 -73.1744 355° North 459 528 31,200 2,000 Climbing Boston Center
Sun 01:48:43 PM 41.1328 -73.1869 356° North 465 535 33,200 1,750 Climbing Boston Center
Sun 01:49:43 PM 41.2892 -73.1942 358° North 494 568 34,700 1,200 Climbing Boston Center
Sun 01:50:43 PM 41.4267 -73.2042 357° North 500 575 35,600 1,600 Climbing Boston Center
Sun 01:51:43 PM 41.5308 -73.2111 357° North 493 567 37,900 1,700 Climbing Boston Center
Sun 01:52:43 PM 41.6683 -73.2292 354° North 474 545 39,000 550 Climbing Boston Center
Sun 01:53:43 PM 41.7972 -73.2422 356° North 467 537 39,000  Level Boston Center
Sun 01:54:43 PM 41.9264 -73.2550 356° North 460 529 39,000  Level Boston Center
Sun 01:55:43 PM 42.0578 -73.2650 357° North 466 536 39,000  Level Boston Center
Sun 01:56:43 PM 42.1972 -73.2808 355° North 466 536 39,000  Level Boston Center
Sun 01:57:43 PM 42.3306 -73.2939 356° North 461 531 39,000  Level Boston Center
Sun 01:58:43 PM 42.4681 -73.2928 360° North 472 543 39,000  Level Boston Center
Sun 01:59:43 PM 42.6014 -73.3003 358° North 477 549 39,000  Level Boston Center
Sun 02:01:00 PM 42.7439 -73.3169 355° North  Level FlightAware Approximate
Sun 02:01:43 PM 42.8658 -73.3381 355° North 477 549 39,000  Level Boston Center
Sun 02:02:43 PM 42.9969 -73.3514 356° North 477 549 39,000  Level Boston Center
Sun 02:03:43 PM 43.1008 -73.3928 344° North 461 531 39,000  Level Boston Center
Sun 02:04:43 PM 43.2172 -73.4458 342° North 442 509 39,000  Level Boston Center
Sun 02:05:43 PM 43.3375 -73.4992 342° North 442 509 39,000  Level Boston Center
Sun 02:06:43 PM 43.4578 -73.5528 342° North 447 514 39,000  Level Boston Center
Sun 02:07:43 PM 43.5761 -73.6094 341° North 447 514 39,000  Level Boston Center
Sun 02:08:43 PM 43.7067 -73.6722 341° North 448 516 39,000 -900 Level Boston Center
Sun 02:10:43 PM 43.9058 -73.7542 343° North 454 522 36,300 -2,024 Descending Boston Center
Sun 02:12:55 PM 44.2186 -73.9058 341° North 483 556 30,500 -2,438 Descending Boston Center
Sun 02:13:55 PM 44.3450 -73.9642 342° North 478 550 28,500 -1,950 Descending Boston Center
Sun 02:14:55 PM 44.4650 -74.0225 341° North 471 542 26,600 -1,600 Descending Boston Center
Sun 02:15:55 PM 44.5583 -74.0628 343° North 449 517 25,300 -1,400 Descending Boston Center
Sun 02:16:55 PM 44.6783 -74.1186 342° North 449 517 23,800 -1,600 Descending Boston Center
Sun 02:17:55 PM 44.7636 -74.2672 309° West 389 448 22,100 -900 Descending Boston Center
Sun 02:18:55 PM 44.8072 -74.4003 295° West 370 426 22,000 -50 Descending Boston Center
Sun 02:19:55 PM 44.8406 -74.5128 293° West 375 432 22,000 -1,152 Level Boston Center
Sun 02:21:00 PM 44.8833 -74.6667 291° West 370 426 19,600 -2,256 Descending Montreal Center
Sun 02:22:00 PM 44.9000 -74.8167 279° West 340 391 17,300 -2,500 Descending Montreal Center
Sun 02:23:00 PM 44.9500 -74.9000 310° West 330 380 14,600 -2,450 Descending Montreal Center
Sun 02:24:00 PM 44.9833 -75.0000 295° West 310 357 12,400 -2,250 Descending Montreal Center
Sun 02:25:00 PM 45.0333 -75.1167 301° West 290 334 10,100 -2,150 Descending Montreal Center
Sun 02:26:00 PM 45.0667 -75.1833 305° West 270 311 8,100 -2,000 Descending Montreal Center
Sun 02:27:00 PM 45.1167 -75.2833 305° West 260 299 6,100 -1,900 Descending Montreal Center
Sun 02:28:00 PM 45.1500 -75.3667 300° West 230 265 4,300 -1,550 Descending Montreal Center
Sun 02:29:00 PM 45.1833 -75.4500 300° West 220 253 3,000 -700 Descending Montreal Center
Sun 02:30:00 PM 45.2167 -75.5000 313° West 190 219 2,900 -500 Descending Montreal Center
Sun 02:31:00 PM 45.2500 -75.5667 305° West 190 219 2,000 -900 Descending Montreal Center
Sun 02:32:00 PM 45.2667 -75.6167 295° West 140 161 1,100 -750 Descending Montreal Center
Sun 02:33:00 PM 45.3000 -75.6667 313° West 140 161 500 -600 Descending Montreal Center

Login

Don't have an account? Register now (free) for customized features, flight alerts, and more!